createdAt,value
2023-01-21T00:02:34.214Z,13.00
2023-01-21T00:07:37.150Z,12.87
2023-01-21T00:12:40.103Z,14.07
2023-01-21T00:17:44.343Z,12.27
2023-01-21T00:22:47.286Z,12.80
2023-01-21T00:27:50.136Z,11.80
2023-01-21T00:32:54.693Z,13.13
2023-01-21T00:37:57.722Z,12.40
2023-01-21T00:43:00.641Z,13.40
2023-01-21T00:48:05.419Z,12.90
2023-01-21T00:53:08.285Z,10.43
2023-01-21T00:58:11.205Z,12.43
2023-01-21T01:03:15.623Z,11.37
2023-01-21T01:08:18.560Z,11.80
2023-01-21T01:13:21.486Z,12.67
2023-01-21T01:18:26.859Z,13.87
2023-01-21T01:23:30.078Z,15.23
2023-01-21T01:28:33.986Z,14.87
2023-01-21T01:33:38.318Z,14.77
2023-01-21T01:38:41.501Z,15.07
2023-01-21T01:43:54.101Z,17.33
2023-01-21T01:49:04.176Z,14.40
2023-01-21T01:54:08.570Z,15.90
2023-01-21T01:59:12.362Z,13.50
2023-01-21T02:04:21.926Z,14.47
2023-01-21T02:09:29.750Z,14.90
2023-01-21T02:14:34.097Z,14.27
2023-01-21T02:20:30.289Z,12.70
2023-01-21T02:25:56.788Z,13.20
2023-01-21T02:31:21.380Z,15.97
2023-01-21T02:36:36.559Z,16.93
2023-01-21T02:41:49.367Z,17.57
2023-01-21T02:46:56.833Z,18.13
2023-01-21T02:52:01.106Z,17.20
2023-01-21T02:57:04.520Z,15.93
2023-01-21T03:02:20.200Z,16.80
2023-01-21T03:07:32.575Z,14.07
2023-01-21T03:12:41.951Z,13.80
2023-01-21T03:17:50.076Z,14.10
2023-01-21T03:23:00.452Z,14.00
2023-01-21T03:28:07.656Z,11.30
2023-01-21T03:33:12.615Z,11.97
2023-01-21T03:38:22.888Z,13.10
2023-01-21T03:43:26.141Z,12.30
2023-01-21T03:48:37.312Z,11.70
2023-01-21T03:53:41.667Z,12.37
2023-01-21T03:58:44.612Z,10.27
2023-01-21T04:03:47.604Z,10.23
2023-01-21T04:08:52.028Z,10.87
2023-01-21T04:13:54.887Z,11.80
2023-01-21T04:18:58.178Z,10.97
2023-01-21T04:24:02.581Z,10.53
2023-01-21T04:29:05.525Z,12.73
2023-01-21T04:34:08.519Z,10.97
2023-01-21T04:39:12.809Z,13.87
2023-01-21T04:44:15.704Z,15.10
2023-01-21T04:49:18.586Z,11.87
2023-01-21T04:54:22.794Z,11.90
2023-01-21T04:59:25.746Z,12.07
2023-01-21T05:04:28.633Z,13.93
2023-01-21T05:09:32.871Z,12.07
2023-01-21T05:14:35.826Z,12.73
2023-01-21T05:19:38.811Z,12.37
2023-01-21T05:24:43.037Z,10.13
2023-01-21T05:29:45.921Z,11.63
2023-01-21T05:34:48.795Z,14.77
2023-01-21T05:39:53.020Z,16.23
2023-01-21T05:44:56.660Z,14.73
2023-01-21T05:49:59.530Z,13.47
2023-01-21T05:55:04.045Z,13.83
2023-01-21T06:00:08.674Z,15.10
2023-01-21T06:05:11.550Z,14.27
2023-01-21T06:10:16.751Z,14.10
2023-01-21T06:15:20.450Z,13.60
2023-01-21T06:20:23.309Z,12.40
2023-01-21T06:25:27.697Z,15.60
2023-01-21T06:30:30.725Z,13.33
2023-01-21T06:35:33.761Z,14.60
2023-01-21T06:40:37.989Z,15.73
2023-01-21T06:45:40.957Z,16.83
2023-01-21T06:50:43.961Z,16.00
2023-01-21T06:55:48.393Z,17.40
2023-01-21T07:00:51.246Z,13.60
2023-01-21T07:05:54.194Z,18.73
2023-01-21T07:10:58.422Z,16.20
2023-01-21T07:16:02.009Z,13.20
2023-01-21T07:21:05.068Z,13.63
2023-01-21T07:26:09.605Z,13.30
2023-01-21T07:31:13.824Z,13.70
2023-01-21T07:36:16.927Z,14.03
2023-01-21T07:41:21.252Z,11.60
2023-01-21T07:46:24.402Z,14.43
2023-01-21T07:51:27.350Z,14.47
2023-01-21T07:56:31.602Z,13.00
2023-01-21T08:01:34.707Z,13.40
2023-01-21T08:06:41.317Z,14.57
2023-01-21T08:11:45.838Z,12.33
2023-01-21T08:16:48.747Z,13.03
2023-01-21T08:21:52.337Z,14.70
2023-01-21T08:26:58.658Z,15.13
2023-01-21T08:32:01.589Z,15.20
2023-01-21T08:37:04.557Z,14.07
2023-01-21T08:42:08.779Z,16.20
2023-01-21T08:47:11.805Z,14.37
2023-01-21T08:52:15.796Z,14.50
2023-01-21T08:57:20.099Z,15.67
2023-01-21T09:02:23.120Z,16.53
2023-01-21T09:07:26.020Z,17.93
2023-01-21T09:12:30.255Z,15.07
2023-01-21T09:17:34.215Z,16.30
2023-01-21T09:22:37.146Z,17.03
2023-01-21T09:27:41.367Z,15.37
2023-01-21T09:32:44.249Z,15.73
2023-01-21T09:37:48.173Z,14.97
2023-01-21T09:42:52.411Z,14.80
2023-01-21T09:47:57.743Z,14.83
2023-01-21T09:53:05.757Z,16.27
2023-01-21T09:58:21.718Z,14.70
2023-01-21T10:03:32.815Z,13.80
2023-01-21T10:08:48.998Z,12.87
2023-01-21T10:14:05.785Z,13.83
2023-01-21T10:19:14.899Z,13.57
2023-01-21T10:24:22.176Z,14.13
2023-01-21T10:29:27.294Z,14.47
2023-01-21T10:34:32.369Z,14.67
2023-01-21T10:39:45.248Z,13.70
2023-01-21T10:44:58.004Z,12.20
2023-01-21T10:50:05.348Z,13.07
2023-01-21T10:55:25.298Z,14.60
2023-01-21T11:00:33.957Z,12.67
2023-01-21T11:05:39.102Z,12.80
2023-01-21T11:10:42.086Z,14.43
2023-01-21T11:15:51.401Z,13.40
2023-01-21T11:20:58.211Z,13.07
2023-01-21T11:26:08.765Z,12.70
2023-01-21T11:31:16.263Z,14.07
2023-01-21T11:36:21.067Z,13.33
2023-01-21T11:41:25.090Z,14.00
2023-01-21T11:46:36.734Z,13.30
2023-01-21T11:51:42.237Z,13.10
2023-01-21T11:56:55.659Z,13.50
2023-01-21T12:02:06.650Z,12.47
2023-01-21T12:07:19.726Z,12.43
2023-01-21T12:12:35.926Z,11.73
2023-01-21T12:17:52.042Z,13.87
2023-01-21T12:23:07.976Z,14.70
2023-01-21T12:28:47.455Z,12.70
2023-01-21T12:33:59.065Z,12.43
2023-01-21T12:39:19.618Z,13.00
2023-01-21T12:44:32.689Z,12.30
2023-01-21T12:49:56.455Z,12.60
2023-01-21T12:55:06.194Z,11.73
2023-01-21T13:00:18.461Z,11.87
2023-01-21T13:05:31.192Z,12.00
2023-01-21T13:10:38.284Z,10.93
2023-01-21T13:15:44.660Z,10.90
2023-01-21T13:20:53.765Z,12.87
2023-01-21T13:26:04.266Z,10.67
2023-01-21T13:31:13.416Z,11.87
2023-01-21T13:36:33.528Z,11.80
2023-01-21T13:41:50.686Z,12.00
2023-01-21T13:47:04.990Z,13.10
2023-01-21T13:52:15.999Z,13.60
2023-01-21T13:57:45.792Z,11.40
2023-01-21T14:02:56.959Z,10.77
2023-01-21T14:08:07.168Z,13.40
2023-01-21T14:13:39.893Z,13.30
2023-01-21T14:18:58.822Z,13.50
2023-01-21T14:24:19.344Z,12.40
2023-01-21T14:29:30.854Z,12.43
2023-01-21T14:34:42.124Z,11.73
2023-01-21T14:39:59.643Z,11.73
2023-01-21T14:45:06.088Z,11.23
2023-01-21T14:50:10.245Z,10.57
2023-01-21T14:55:28.732Z,11.10
2023-01-21T15:00:33.860Z,10.30
2023-01-21T15:05:38.099Z,10.10
2023-01-21T15:10:42.608Z,9.40
2023-01-21T15:16:05.384Z,11.20
2023-01-21T15:21:36.347Z,9.70
2023-01-21T15:26:42.323Z,8.57
2023-01-21T15:31:46.125Z,9.00
2023-01-21T15:36:53.319Z,9.20
2023-01-21T15:42:15.979Z,8.70
2023-01-21T15:47:50.694Z,11.23
2023-01-21T15:53:21.378Z,8.00
2023-01-21T15:58:38.950Z,9.20
2023-01-21T16:03:47.647Z,8.20
2023-01-21T16:09:03.060Z,8.87
2023-01-21T16:14:18.796Z,8.30
2023-01-21T16:19:24.021Z,7.10
2023-01-21T16:24:29.967Z,7.70
2023-01-21T16:29:39.368Z,6.30
2023-01-21T16:34:44.063Z,7.70
2023-01-21T16:39:47.035Z,6.43
2023-01-21T16:44:52.032Z,5.30
2023-01-21T16:49:54.913Z,6.23
2023-01-21T16:54:57.846Z,6.87
2023-01-21T17:00:02.773Z,6.27
2023-01-21T17:05:07.013Z,5.67
2023-01-21T17:10:21.547Z,6.47
2023-01-21T17:15:32.113Z,6.30
2023-01-21T17:20:42.299Z,6.77
2023-01-21T17:25:49.926Z,6.20
2023-01-21T17:31:09.753Z,5.87
2023-01-21T17:36:14.241Z,5.90
2023-01-21T17:41:25.710Z,5.60
2023-01-21T17:46:30.854Z,10.37
2023-01-21T17:51:35.141Z,7.80
2023-01-21T17:56:40.336Z,7.10
2023-01-21T18:01:44.628Z,5.40
2023-01-21T18:06:47.540Z,6.10
2023-01-21T18:11:52.928Z,5.90
2023-01-21T18:16:57.220Z,6.60
2023-01-21T18:22:00.968Z,7.10
2023-01-21T18:27:04.146Z,6.83
2023-01-21T18:32:11.668Z,5.60
2023-01-21T18:37:16.656Z,7.37
2023-01-21T18:42:19.614Z,6.47
2023-01-21T18:47:23.856Z,5.23
2023-01-21T18:52:26.834Z,6.93
2023-01-21T18:57:29.757Z,6.50
2023-01-21T19:02:34.091Z,5.53
2023-01-21T19:07:37.132Z,5.30
2023-01-21T19:12:40.106Z,6.07
2023-01-21T19:17:45.932Z,7.20
2023-01-21T19:22:49.727Z,7.00
2023-01-21T19:27:55.430Z,7.33
2023-01-21T19:33:01.753Z,6.37
2023-01-21T19:38:10.950Z,10.27
2023-01-21T19:43:14.489Z,10.03
2023-01-21T19:48:20.892Z,6.53
2023-01-21T19:53:24.071Z,18.23
2023-01-21T19:58:29.617Z,8.80
2023-01-21T20:03:33.895Z,7.33
2023-01-21T20:08:36.774Z,8.33
2023-01-21T20:13:39.722Z,7.70
2023-01-21T20:18:46.205Z,10.20
2023-01-21T20:23:49.124Z,6.40
2023-01-21T20:28:54.519Z,6.63
2023-01-21T20:33:58.934Z,11.10
2023-01-21T20:39:01.845Z,8.90
2023-01-21T20:44:04.858Z,6.77
2023-01-21T20:49:12.233Z,7.53
2023-01-21T20:54:15.134Z,8.03
2023-01-21T20:59:18.427Z,5.60
2023-01-21T21:04:24.843Z,7.00
2023-01-21T21:09:27.807Z,6.77
2023-01-21T21:14:30.718Z,6.50
2023-01-21T21:19:34.914Z,5.87
2023-01-21T21:24:37.825Z,10.17
2023-01-21T21:29:40.749Z,6.80
2023-01-21T21:34:45.001Z,6.67
2023-01-21T21:39:47.862Z,7.40
2023-01-21T21:44:50.778Z,8.10
2023-01-21T21:49:55.070Z,7.17
2023-01-21T21:54:57.954Z,9.73
2023-01-21T22:00:00.867Z,7.20
2023-01-21T22:05:05.621Z,18.23
2023-01-21T22:10:09.680Z,6.47
2023-01-21T22:15:12.845Z,6.77
2023-01-21T22:20:17.164Z,6.57
2023-01-21T22:25:20.496Z,6.30
2023-01-21T22:30:25.131Z,6.47
2023-01-21T22:35:29.460Z,6.87
2023-01-21T22:40:33.999Z,6.40
2023-01-21T22:45:37.031Z,6.30
2023-01-21T22:50:44.424Z,6.23
2023-01-21T22:55:53.990Z,6.60
2023-01-21T23:00:57.650Z,6.30
2023-01-21T23:06:06.464Z,6.07
2023-01-21T23:11:11.544Z,7.07
2023-01-21T23:16:17.223Z,5.80
2023-01-21T23:21:23.236Z,6.23
2023-01-21T23:26:26.126Z,6.50
2023-01-21T23:31:29.146Z,5.63
2023-01-21T23:36:33.543Z,5.77
2023-01-21T23:41:36.421Z,6.10
2023-01-21T23:46:39.450Z,6.23
2023-01-21T23:51:43.696Z,6.20
2023-01-21T23:56:46.587Z,6.23
